الصفحة الرئيسية
METAR-TAF:

METAR-TAF

مطار :

مورمانسك, روسيا

دائرة عرض: 68-58N, خط طول: 033-03E, ارتفاع: 51 متر

مراقبة الطقس الحالي

تاريخ ووقت الإصدار 22 دقيقة قبل الساعة 12:30UTC
ريح 2 عقدة من الشمال
درجة الحرارة 25°درجة مئوية
الرطوبة 47%
ضغط 1016 hPa
الرؤية 10 كم أو أكثر
غيوم متفرقة على ارتفاع 4600 قدم

METAR: ULMM 201230Z 35001MPS 9999 SCT046 25/13 Q1016 R13/090070 NOSIG RMK QFE755

زمن: 15:52 (12:52 UTC)

توقعات

تاريخ ووقت الإصدار 2ساعات و 2 دقيقة قبل الساعة 10:50UTC
التوقعات صالحة من20 الساعة 12 UTC إلى 21 الساعة 12 UTC
ريح 6 عقدة من الشمال الشرقي تتزايد حتى 16 عقدة
الرؤية 10 كم أو أكثر
غيوم متفرقة على ارتفاع 4000 قدم

TAF: ULMM 201050Z 2012/2112 05003G08MPS 9999 SCT040

أرصاد الطقس والتوقعات من أكثر من 4000 مطار (تقارير الطقس للمطار METAR والتنبؤ بالطقس بالمطارTAF).

المحطات المتاحة هي النقط الصفراء والحمراء على الخريطة.

حرك المؤشر فوق النقطة لمعرفة اسم المحطة.

ثم انقر لمعرفة أرصاد وتوقعات الطقس.

لتغيير الخارطة: اضغط على الأزرار الخضراء مع رمز الصليب الأسود للتكبير. على الزر الأخضر مع شرطة للتصغير، أو على الأسهم الخضراء للخرائط المجاورة.


METAR-TAF: